Time;durP1;ratioP1;P1;durP2;ratioP2;P2;SDS_P1;SDS_P2;PMS_P1;PMS_P2;Temp;Humidity;BMP_temperature;BMP_pressure;BME280_temperature;BME280_humidity;BME280_pressure;Samples;Min_cycle;Max_cycle;Signal;HPM_P1;HPM_P2
2022/11/06 00:00:56;;;;;;;25.42;23.02;;;4.10;99.90;;;;;;4998196;28;20195;-44
2022/11/06 00:03:23;;;;;;;25.50;23.13;;;4.10;99.90;;;;;;4992950;28;20695;-47
2022/11/06 00:08:37;;;;;;;25.98;23.50;;;4.00;99.90;;;;;;5002031;28;20195;-43
2022/11/06 00:11:13;;;;;;;24.70;22.35;;;4.00;99.90;;;;;;5007666;28;20657;-46
2022/11/06 00:13:40;;;;;;;24.15;21.95;;;4.00;99.90;;;;;;5007019;28;20249;-50
2022/11/06 00:16:07;;;;;;;24.10;21.95;;;4.00;99.90;;;;;;5004211;28;20192;-45
2022/11/06 00:18:34;;;;;;;23.13;21.02;;;4.00;99.90;;;;;;4997764;28;20193;-47
2022/11/06 00:21:18;;;;;;;23.65;21.33;;;4.00;99.90;;;;;;5000250;28;20227;-46
2022/11/06 00:23:45;;;;;;;23.15;21.10;;;3.90;99.90;;;;;;4994195;28;20217;-46
2022/11/06 00:26:13;;;;;;;23.60;21.55;;;3.90;99.90;;;;;;5001119;28;20195;-47
2022/11/06 00:28:39;;;;;;;23.88;21.65;;;3.80;99.90;;;;;;5004142;28;20944;-44
2022/11/06 00:31:10;;;;;;;23.10;21.13;;;3.80;99.90;;;;;;5000814;28;20266;-42
2022/11/06 00:33:37;;;;;;;24.85;22.63;;;3.90;99.90;;;;;;5003766;28;20269;-43
2022/11/06 00:36:08;;;;;;;24.52;22.17;;;3.80;99.90;;;;;;5009000;28;20233;-44
2022/11/06 00:38:34;;;;;;;24.15;22.00;;;3.80;99.90;;;;;;4999402;28;20678;-43
2022/11/06 00:41:05;;;;;;;25.97;23.63;;;3.80;99.90;;;;;;4997354;28;20183;-45
2022/11/06 00:43:32;;;;;;;24.23;21.83;;;3.80;99.90;;;;;;5001736;28;20202;-48
2022/11/06 00:46:06;;;;;;;23.85;21.75;;;3.80;99.90;;;;;;5007465;28;20182;-44
2022/11/06 00:48:32;;;;;;;25.30;23.05;;;3.80;99.90;;;;;;4993144;28;20643;-43
2022/11/06 00:51:06;;;;;;;24.70;22.40;;;3.80;99.90;;;;;;5005629;28;20187;-43
2022/11/06 00:53:32;;;;;;;24.25;22.25;;;3.80;99.90;;;;;;4996173;28;20222;-42
2022/11/06 00:56:13;;;;;;;24.50;22.50;;;3.70;99.90;;;;;;5008431;28;20229;-48
2022/11/06 00:58:39;;;;;;;24.80;22.40;;;3.70;99.90;;;;;;4992083;28;20183;-44
2022/11/06 01:01:10;;;;;;;25.25;22.88;;;3.70;99.90;;;;;;5004006;28;20183;-46
2022/11/06 01:03:38;;;;;;;25.70;23.00;;;3.70;99.90;;;;;;5000584;28;20266;-44
2022/11/06 01:06:18;;;;;;;25.50;23.10;;;3.70;99.90;;;;;;5008598;28;20728;-45
2022/11/06 01:08:45;;;;;;;24.15;21.95;;;3.60;99.90;;;;;;5005581;28;20189;-46
2022/11/06 01:11:24;;;;;;;25.02;22.58;;;3.60;99.90;;;;;;5008123;28;20191;-44
2022/11/06 01:13:51;;;;;;;24.90;22.48;;;3.50;99.90;;;;;;4999501;28;20305;-44
2022/11/06 01:16:17;;;;;;;24.75;22.35;;;3.50;99.90;;;;;;4995826;28;20179;-43
2022/11/06 01:18:43;;;;;;;25.33;22.92;;;3.60;99.90;;;;;;5002785;28;20195;-43
2022/11/06 01:21:12;;;;;;;25.08;22.77;;;3.50;99.90;;;;;;4990290;28;20239;-44
2022/11/06 01:23:38;;;;;;;23.73;21.50;;;3.60;99.90;;;;;;5001676;28;20191;-43
2022/11/06 01:26:06;;;;;;;24.83;22.48;;;3.50;99.90;;;;;;5007491;28;20749;-43
2022/11/06 01:28:32;;;;;;;25.55;22.95;;;3.50;99.90;;;;;;5001815;28;20607;-43
2022/11/06 01:31:03;;;;;;;25.85;23.25;;;3.50;99.90;;;;;;5002299;28;20211;-47
2022/11/06 01:33:28;;;;;;;25.88;23.25;;;3.50;99.90;;;;;;5000238;28;20191;-43
2022/11/06 01:35:54;;;;;;;25.67;23.27;;;3.50;99.90;;;;;;4997613;28;20271;-46
2022/11/06 01:38:19;;;;;;;26.20;23.60;;;3.50;99.90;;;;;;5005498;28;20191;-44
2022/11/06 01:40:47;;;;;;;25.47;23.10;;;3.40;99.90;;;;;;5000842;28;20199;-49
2022/11/06 01:43:22;;;;;;;25.45;23.05;;;3.40;99.90;;;;;;4996386;28;20192;-45
2022/11/06 01:45:52;;;;;;;26.90;24.25;;;3.50;99.90;;;;;;5009503;28;20547;-47
2022/11/06 01:48:22;;;;;;;26.60;23.80;;;3.40;99.90;;;;;;5004876;28;20191;-45
2022/11/06 01:50:52;;;;;;;27.00;24.35;;;3.40;99.90;;;;;;5008748;28;20184;-43
2022/11/06 01:53:19;;;;;;;28.55;24.10;;;3.50;99.90;;;;;;5010122;28;20179;-42
2022/11/06 01:55:48;;;;;;;26.00;23.48;;;3.50;99.90;;;;;;5010503;28;20827;-45
2022/11/06 01:58:17;;;;;;;25.95;23.35;;;3.50;99.90;;;;;;5010764;28;20669;-44
2022/11/06 02:00:43;;;;;;;27.30;24.52;;;3.50;99.90;;;;;;4995536;28;20701;-44
2022/11/06 02:03:11;;;;;;;27.77;24.88;;;3.40;99.90;;;;;;5007030;28;20184;-44
2022/11/06 02:05:37;;;;;;;27.45;24.55;;;3.50;99.90;;;;;;5012717;28;20179;-43
2022/11/06 02:08:03;;;;;;;27.10;24.17;;;3.50;99.90;;;;;;5002370;28;20218;-47
2022/11/06 02:10:29;;;;;;;26.88;24.38;;;3.40;99.90;;;;;;5003887;28;20179;-44
2022/11/06 02:13:16;;;;;;;26.25;23.70;;;3.40;99.90;;;;;;5007113;28;20184;-43
2022/11/06 02:16:08;;;;;;;27.10;24.40;;;3.40;99.90;;;;;;4998659;28;20592;-44
2022/11/06 02:18:57;;;;;;;27.52;24.60;;;3.40;99.90;;;;;;4998126;28;20201;-42
2022/11/06 02:21:57;;;;;;;25.92;23.40;;;3.40;99.90;;;;;;5010089;28;20227;-44
2022/11/06 02:24:29;;;;;;;26.10;23.40;;;3.40;99.90;;;;;;5001752;28;20642;-46
2022/11/06 02:27:15;;;;;;;27.38;24.58;;;3.40;99.90;;;;;;5009840;28;20196;-47
2022/11/06 02:30:09;;;;;;;27.85;25.15;;;3.30;99.90;;;;;;5012269;28;20614;-44
2022/11/06 02:33:04;;;;;;;25.98;23.45;;;3.30;99.90;;;;;;5006688;28;20191;-47
2022/11/06 02:35:50;;;;;;;26.17;23.67;;;3.30;99.90;;;;;;4996162;28;20262;-46
2022/11/06 02:38:23;;;;;;;28.05;25.17;;;3.30;99.90;;;;;;5009069;28;20218;-44
2022/11/06 02:40:54;;;;;;;26.92;24.33;;;3.30;99.90;;;;;;4996755;28;20230;-45
2022/11/06 02:43:25;;;;;;;25.60;23.25;;;3.30;99.90;;;;;;4992830;28;20275;-45
2022/11/06 02:45:56;;;;;;;25.50;22.90;;;3.30;99.90;;;;;;4992839;28;20168;-47
2022/11/06 02:48:28;;;;;;;25.30;23.00;;;3.30;99.90;;;;;;5009679;28;20748;-46
2022/11/06 02:50:57;;;;;;;26.63;24.10;;;3.30;99.90;;;;;;5010793;28;20183;-45
2022/11/06 02:53:25;;;;;;;26.50;23.80;;;3.30;99.90;;;;;;4993726;28;20194;-47
2022/11/06 02:55:55;;;;;;;27.55;24.95;;;3.30;99.90;;;;;;5006601;28;20274;-46
2022/11/06 02:58:38;;;;;;;26.48;24.05;;;3.30;99.90;;;;;;4996788;28;20194;-44
2022/11/06 03:01:26;;;;;;;26.17;23.73;;;3.30;99.90;;;;;;4992942;28;20254;-45
2022/11/06 03:03:56;;;;;;;26.80;24.15;;;3.30;99.90;;;;;;5010004;28;20195;-48
2022/11/06 03:06:40;;;;;;;25.90;23.25;;;3.20;99.90;;;;;;5004558;28;20246;-49
2022/11/06 03:09:11;;;;;;;26.73;24.02;;;3.30;99.90;;;;;;5001465;28;20186;-45
2022/11/06 03:11:37;;;;;;;25.58;23.13;;;3.20;99.90;;;;;;5002930;28;20250;-47
2022/11/06 03:14:12;;;;;;;26.70;24.15;;;3.20;99.90;;;;;;4994487;28;20736;-45
2022/11/06 03:16:58;;;;;;;25.15;22.85;;;3.20;99.90;;;;;;5000402;28;20217;-44
2022/11/06 03:19:33;;;;;;;25.45;22.95;;;3.20;99.90;;;;;;5019944;28;20181;-50
2022/11/06 03:22:31;;;;;;;26.80;24.10;;;3.20;99.90;;;;;;4995773;28;20227;-44
2022/11/06 03:24:58;;;;;;;25.95;23.27;;;3.20;99.90;;;;;;4973848;28;20206;-45
2022/11/06 03:27:35;;;;;;;26.02;23.60;;;3.20;99.90;;;;;;5000897;28;20184;-44
2022/11/06 03:30:07;;;;;;;25.77;23.30;;;3.20;99.90;;;;;;4998661;28;20266;-44
2022/11/06 03:32:39;;;;;;;25.13;22.60;;;3.10;99.90;;;;;;5003547;28;20223;-45
2022/11/06 03:35:16;;;;;;;25.15;22.63;;;3.10;99.90;;;;;;5009966;28;20654;-46
2022/11/06 03:37:46;;;;;;;25.45;22.95;;;3.10;99.90;;;;;;5005509;28;20233;-44
2022/11/06 03:40:15;;;;;;;26.27;23.67;;;3.10;99.90;;;;;;5005549;28;20194;-44
2022/11/06 03:42:43;;;;;;;25.80;23.42;;;3.10;99.90;;;;;;5005955;28;20194;-44
2022/11/06 03:45:19;;;;;;;25.00;22.52;;;3.10;99.90;;;;;;4991306;28;20247;-45
2022/11/06 03:47:51;;;;;;;26.10;23.38;;;3.10;99.90;;;;;;4998751;28;20533;-46
2022/11/06 03:50:26;;;;;;;25.75;23.17;;;3.10;99.90;;;;;;5010719;28;20186;-46
2022/11/06 03:53:16;;;;;;;31.55;23.90;;;3.00;99.90;;;;;;5005199;28;20190;-45
2022/11/06 03:55:46;;;;;;;25.85;23.35;;;3.00;99.90;;;;;;4998967;28;20668;-44
2022/11/06 03:58:18;;;;;;;25.90;23.20;;;3.00;99.90;;;;;;5005341;28;20220;-45
2022/11/06 04:00:44;;;;;;;25.63;23.05;;;3.00;99.90;;;;;;4994664;28;20188;-46
2022/11/06 04:03:27;;;;;;;25.10;22.80;;;3.00;99.90;;;;;;4993169;28;20199;-43
2022/11/06 04:05:59;;;;;;;25.55;23.35;;;3.00;99.90;;;;;;4994550;28;20199;-45
2022/11/06 04:14:04;;;;;;;27.08;24.30;;;2.90;99.90;;;;;;5003087;28;20250;-46
2022/11/06 04:16:38;;;;;;;26.60;23.88;;;2.90;99.90;;;;;;5003019;28;20178;-46
2022/11/06 04:19:16;;;;;;;26.73;24.13;;;2.90;99.90;;;;;;5005800;28;20253;-45
2022/11/06 04:22:13;;;;;;;26.42;23.73;;;2.90;99.90;;;;;;5006582;28;20227;-47
2022/11/06 04:28:19;;;;;;;26.85;24.13;;;2.90;99.90;;;;;;5000602;28;20838;-46
2022/11/06 04:31:06;;;;;;;27.63;24.77;;;2.90;99.90;;;;;;5008784;28;20183;-48
2022/11/06 04:33:44;;;;;;;26.60;24.10;;;2.80;99.90;;;;;;5005293;28;20880;-47
2022/11/06 04:36:28;;;;;;;27.02;24.40;;;2.90;99.90;;;;;;5005105;28;20642;-45
2022/11/06 04:39:17;;;;;;;27.75;24.85;;;2.90;99.90;;;;;;4992332;28;20204;-44
2022/11/06 04:41:50;;;;;;;27.00;24.40;;;2.80;99.90;;;;;;4997257;28;20206;-46
2022/11/06 04:44:32;;;;;;;27.05;24.15;;;2.80;99.90;;;;;;5006223;28;20195;-49
2022/11/06 04:47:07;;;;;;;26.42;23.70;;;2.80;99.90;;;;;;5000113;28;20677;-44
2022/11/06 04:49:36;;;;;;;27.50;24.63;;;2.80;99.90;;;;;;4995143;28;20191;-49
2022/11/06 04:52:04;;;;;;;27.30;24.63;;;2.80;99.90;;;;;;5007440;28;20179;-46
2022/11/06 04:54:31;;;;;;;27.75;25.05;;;2.80;99.90;;;;;;5003703;28;20202;-48
2022/11/06 04:56:59;;;;;;;26.83;24.33;;;2.80;99.90;;;;;;4995280;28;20184;-44
2022/11/06 04:59:25;;;;;;;27.73;24.98;;;2.80;99.90;;;;;;4994897;28;20675;-46
2022/11/06 05:01:51;;;;;;;27.77;24.97;;;2.70;99.90;;;;;;4999622;28;20182;-44
2022/11/06 05:04:16;;;;;;;28.23;25.27;;;2.80;99.90;;;;;;5008228;28;20452;-47
2022/11/06 05:06:42;;;;;;;28.83;25.73;;;2.80;99.90;;;;;;5007363;28;20780;-44
2022/11/06 05:09:08;;;;;;;27.83;25.00;;;2.80;99.90;;;;;;4998503;28;20542;-48
2022/11/06 05:11:33;;;;;;;28.37;25.13;;;2.80;99.90;;;;;;5006836;28;20191;-45
2022/11/06 05:13:59;;;;;;;28.47;25.73;;;2.80;99.90;;;;;;4991296;28;20207;-45
2022/11/06 05:16:24;;;;;;;28.67;25.60;;;2.80;99.90;;;;;;5003431;28;20186;-52
2022/11/06 05:18:50;;;;;;;30.00;26.77;;;2.80;99.90;;;;;;5001231;28;20197;-46
2022/11/06 05:23:59;;;;;;;32.42;26.65;;;2.70;99.90;;;;;;5000819;28;20224;-46
2022/11/06 05:26:25;;;;;;;30.77;25.93;;;2.70;99.90;;;;;;5001612;28;20611;-46
2022/11/06 05:28:50;;;;;;;31.03;27.60;;;2.70;99.90;;;;;;5010174;28;20688;-44
2022/11/06 05:31:16;;;;;;;34.70;27.33;;;2.70;99.90;;;;;;5002849;28;20705;-45
2022/11/06 05:33:42;;;;;;;30.63;27.50;;;2.70;99.90;;;;;;5012116;28;20688;-49
2022/11/06 05:36:07;;;;;;;29.60;26.50;;;2.70;99.90;;;;;;5006002;28;20271;-48
2022/11/06 05:38:33;;;;;;;29.97;26.93;;;2.70;99.90;;;;;;5009423;28;20179;-46
2022/11/06 05:40:59;;;;;;;33.30;27.10;;;2.80;99.90;;;;;;5004189;28;20433;-46
2022/11/06 05:43:25;;;;;;;33.77;28.90;;;2.80;99.90;;;;;;5000868;28;20219;-45
2022/11/06 05:45:50;;;;;;;35.30;27.27;;;2.80;99.90;;;;;;5010891;28;20433;-46
2022/11/06 05:48:16;;;;;;;30.80;27.60;;;2.90;99.90;;;;;;5005152;28;20645;-48
2022/11/06 05:50:42;;;;;;;29.87;26.77;;;2.90;99.90;;;;;;5004370;28;20523;-43
2022/11/06 05:53:07;;;;;;;31.27;27.93;;;2.90;99.90;;;;;;5010084;28;20191;-43
2022/11/06 05:55:33;;;;;;;35.70;28.17;;;2.90;99.90;;;;;;5010543;28;20238;-48
2022/11/06 05:57:58;;;;;;;31.03;27.53;;;2.90;99.90;;;;;;5012320;28;20187;-49
2022/11/06 06:00:24;;;;;;;31.30;27.90;;;3.00;99.90;;;;;;5005865;28;20222;-47
2022/11/06 06:02:50;;;;;;;30.57;27.33;;;3.00;99.90;;;;;;5000989;28;20211;-45
2022/11/06 06:05:15;;;;;;;30.10;26.90;;;3.00;99.90;;;;;;5011903;28;20194;-50
2022/11/06 06:07:41;;;;;;;37.13;28.43;;;2.90;99.90;;;;;;5011559;28;20195;-44
2022/11/06 06:10:07;;;;;;;32.03;28.00;;;2.90;99.90;;;;;;5011981;28;20467;-45
2022/11/06 06:12:33;;;;;;;33.97;28.08;;;2.80;99.90;;;;;;5006609;28;20261;-45
2022/11/06 06:14:59;;;;;;;31.63;28.20;;;2.80;99.90;;;;;;4996214;28;20207;-44
2022/11/06 06:17:26;;;;;;;30.83;27.53;;;2.80;99.90;;;;;;5011763;28;20183;-43
2022/11/06 06:19:51;;;;;;;31.13;27.88;;;2.80;99.90;;;;;;5005877;28;20443;-44
2022/11/06 06:22:17;;;;;;;32.73;29.33;;;2.80;99.90;;;;;;5006975;28;20638;-47
2022/11/06 06:24:42;;;;;;;32.83;28.20;;;2.80;99.90;;;;;;5005459;28;20257;-46
2022/11/06 06:27:08;;;;;;;34.17;29.07;;;2.90;99.90;;;;;;5001847;28;20267;-44
2022/11/06 06:29:34;;;;;;;31.87;28.10;;;2.90;99.90;;;;;;4997266;28;20188;-43
2022/11/06 06:32:00;;;;;;;38.63;28.83;;;2.90;99.90;;;;;;5004489;28;20187;-50
2022/11/06 06:34:25;;;;;;;30.77;27.00;;;2.90;99.90;;;;;;5011800;28;20584;-43
2022/11/06 06:36:52;;;;;;;32.93;28.37;;;2.90;99.90;;;;;;5010538;28;20175;-43
2022/11/06 06:39:18;;;;;;;38.05;29.90;;;3.00;99.90;;;;;;5008509;28;20345;-44
2022/11/06 06:41:45;;;;;;;32.65;28.90;;;2.90;99.90;;;;;;4987413;28;21120;-47
2022/11/06 06:44:10;;;;;;;31.20;27.80;;;3.00;99.90;;;;;;4989483;28;20183;-46
2022/11/06 06:46:36;;;;;;;34.47;29.47;;;3.00;99.90;;;;;;4988322;28;20813;-45
2022/11/06 06:49:02;;;;;;;32.97;27.97;;;3.00;99.90;;;;;;4987668;28;20542;-44
2022/11/06 06:51:27;;;;;;;33.27;28.90;;;3.00;99.90;;;;;;4999560;28;20187;-46
2022/11/06 06:53:53;;;;;;;33.90;29.37;;;3.10;99.90;;;;;;4996621;28;20207;-45
2022/11/06 06:56:18;;;;;;;33.23;29.50;;;3.20;99.90;;;;;;4997463;28;20179;-45
2022/11/06 06:58:44;;;;;;;33.17;29.60;;;3.20;99.90;;;;;;4991555;28;20230;-44
2022/11/06 07:01:09;;;;;;;36.30;30.53;;;3.30;99.90;;;;;;4991555;28;20194;-44
2022/11/06 07:03:38;;;;;;;37.77;30.23;;;3.30;99.90;;;;;;4990346;28;20275;-48
2022/11/06 07:06:05;;;;;;;32.92;29.35;;;3.40;99.90;;;;;;4995179;28;20267;-46
2022/11/06 07:08:31;;;;;;;31.70;28.25;;;3.50;99.90;;;;;;4990064;28;20645;-45
2022/11/06 07:11:04;;;;;;;32.17;28.75;;;3.50;99.90;;;;;;4996374;28;20191;-46
2022/11/06 07:13:30;;;;;;;33.83;30.25;;;3.60;99.90;;;;;;4998419;28;20188;-44
2022/11/06 07:15:56;;;;;;;33.37;28.90;;;3.70;99.90;;;;;;4979813;28;20209;-46
2022/11/06 07:18:22;;;;;;;33.67;29.80;;;3.80;99.90;;;;;;4987237;28;20446;-45
2022/11/06 07:20:47;;;;;;;34.55;30.80;;;3.90;99.90;;;;;;4985551;28;20247;-47
2022/11/06 07:23:13;;;;;;;36.27;30.77;;;3.90;99.90;;;;;;4986913;28;20183;-44
2022/11/06 07:25:39;;;;;;;37.07;30.80;;;4.00;99.90;;;;;;5002028;28;20187;-44
2022/11/06 07:28:06;;;;;;;34.20;30.33;;;4.10;99.90;;;;;;4986842;28;20188;-49
2022/11/06 07:30:33;;;;;;;37.00;32.03;;;4.20;99.90;;;;;;4982831;28;20179;-47
2022/11/06 07:33:00;;;;;;;36.38;32.35;;;4.30;99.90;;;;;;4994851;28;20310;-45
2022/11/06 07:35:26;;;;;;;39.85;31.23;;;4.50;99.90;;;;;;4986023;28;20195;-46
2022/11/06 07:37:52;;;;;;;38.20;32.73;;;4.90;99.90;;;;;;4989876;28;20183;-44
2022/11/06 07:40:17;;;;;;;40.43;32.80;;;5.30;99.90;;;;;;4997756;28;20441;-43
2022/11/06 07:42:43;;;;;;;43.53;34.10;;;5.70;99.90;;;;;;4989557;28;20186;-49
2022/11/06 07:45:08;;;;;;;40.70;32.80;;;6.10;99.90;;;;;;4987348;28;20201;-45
2022/11/06 07:47:34;;;;;;;26.25;23.75;;;6.70;99.90;;;;;;4993653;28;20941;-46
2022/11/06 07:50:04;;;;;;;27.67;25.37;;;7.30;99.90;;;;;;5005939;28;20180;-50
2022/11/06 07:52:30;;;;;;;27.20;24.80;;;7.50;99.90;;;;;;5000479;28;20881;-46
2022/11/06 07:54:56;;;;;;;23.27;21.17;;;8.00;99.90;;;;;;5003369;28;20497;-48
2022/11/06 07:57:21;;;;;;;22.27;20.10;;;8.20;99.90;;;;;;4991531;28;20965;-50
2022/11/06 07:59:47;;;;;;;20.40;18.60;;;8.60;99.90;;;;;;4996538;28;20235;-48
2022/11/06 08:02:13;;;;;;;20.20;18.40;;;8.90;99.90;;;;;;5008111;28;20187;-44
2022/11/06 08:04:39;;;;;;;19.10;17.60;;;9.40;99.90;;;;;;5002297;28;20187;-44
2022/11/06 08:07:04;;;;;;;18.67;17.13;;;9.50;99.90;;;;;;4990366;28;20454;-47
2022/11/06 08:09:30;;;;;;;17.83;16.33;;;10.00;99.90;;;;;;5002840;28;20187;-45
2022/11/06 08:11:56;;;;;;;17.90;16.37;;;10.30;99.90;;;;;;5006756;28;20230;-48
2022/11/06 08:14:21;;;;;;;17.07;15.57;;;10.70;99.90;;;;;;4998021;28;20863;-43
2022/11/06 08:16:47;;;;;;;15.87;14.57;;;10.90;99.90;;;;;;4998827;28;20184;-45
2022/11/06 08:19:13;;;;;;;16.23;15.03;;;11.40;99.90;;;;;;4995422;28;20277;-49
2022/11/06 08:21:38;;;;;;;16.50;15.20;;;11.70;99.90;;;;;;4994426;28;20470;-48
2022/11/06 08:24:04;;;;;;;16.63;15.33;;;12.00;99.90;;;;;;4990791;28;20185;-48
2022/11/06 08:26:30;;;;;;;16.17;14.87;;;12.30;99.90;;;;;;4992461;28;20187;-45
2022/11/06 08:28:56;;;;;;;16.10;14.80;;;12.30;99.90;;;;;;5010149;28;20228;-45
2022/11/06 08:31:22;;;;;;;16.90;15.50;;;12.30;99.90;;;;;;4995627;28;20455;-48
2022/11/06 08:33:48;;;;;;;15.97;14.70;;;12.80;99.90;;;;;;4990314;28;20207;-50
2022/11/06 08:36:14;;;;;;;17.20;15.87;;;13.00;99.90;;;;;;4990097;28;20446;-47
2022/11/06 08:38:39;;;;;;;16.97;15.67;;;13.10;99.90;;;;;;4998993;28;20932;-45
2022/11/06 08:41:07;;;;;;;15.57;14.43;;;13.60;99.90;;;;;;5009745;28;20180;-50
2022/11/06 08:43:33;;;;;;;15.70;14.43;;;14.00;99.90;;;;;;4990295;28;20194;-47
2022/11/06 08:45:59;;;;;;;16.00;14.80;;;14.70;99.90;;;;;;4991665;28;20419;-50
2022/11/06 08:48:24;;;;;;;16.13;14.93;;;15.00;97.80;;;;;;4991495;28;20426;-49
2022/11/06 08:50:50;;;;;;;16.03;14.73;;;14.90;97.00;;;;;;4990149;28;20493;-45
2022/11/06 08:53:15;;;;;;;16.07;14.77;;;15.20;95.40;;;;;;4992913;28;20187;-44
2022/11/06 08:55:41;;;;;;;16.47;15.27;;;15.40;95.20;;;;;;5007051;28;20217;-50
2022/11/06 08:58:07;;;;;;;15.50;14.37;;;15.80;94.10;;;;;;5007215;28;20199;-45
2022/11/06 09:00:34;;;;;;;14.90;13.90;;;16.20;92.90;;;;;;5009775;28;20221;-47
2022/11/06 09:03:04;;;;;;;15.20;14.10;;;16.30;90.30;;;;;;5009715;28;20464;-48
2022/11/06 09:05:30;;;;;;;14.50;13.50;;;16.40;90.20;;;;;;5009888;28;20398;-45
2022/11/06 09:07:57;;;;;;;15.50;14.30;;;16.60;84.50;;;;;;5009842;28;20472;-45
2022/11/06 09:10:23;;;;;;;14.47;13.57;;;16.90;82.90;;;;;;5009684;28;20195;-49
2022/11/06 09:12:49;;;;;;;15.07;14.03;;;16.80;83.10;;;;;;5009624;28;20410;-45
2022/11/06 09:15:15;;;;;;;16.17;14.90;;;16.80;82.50;;;;;;5009416;28;20466;-44
2022/11/06 09:17:49;;;;;;;15.27;14.17;;;16.90;85.10;;;;;;5009621;28;20592;-46
2022/11/06 09:20:16;;;;;;;14.23;13.30;;;17.30;82.70;;;;;;5027488;28;20224;-45
2022/11/06 09:22:41;;;;;;;15.23;14.13;;;17.80;81.30;;;;;;5029277;28;20462;-46
2022/11/06 09:25:08;;;;;;;15.00;13.90;;;18.20;76.40;;;;;;5029097;28;20512;-49
2022/11/06 09:27:47;;;;;;;14.90;13.83;;;18.40;76.40;;;;;;5011760;28;20193;-46
2022/11/06 09:30:16;;;;;;;15.17;14.17;;;18.50;73.00;;;;;;5003941;28;20457;-51
2022/11/06 09:32:52;;;;;;;14.67;13.67;;;18.60;71.70;;;;;;4990812;28;20518;-48
2022/11/06 09:35:18;;;;;;;14.30;13.30;;;18.50;72.70;;;;;;5008847;28;20539;-48
2022/11/06 09:37:44;;;;;;;14.07;13.10;;;18.60;72.60;;;;;;5005944;28;20473;-46
2022/11/06 09:40:20;;;;;;;14.57;13.47;;;19.10;72.10;;;;;;4996167;28;20446;-50
2022/11/06 09:43:16;;;;;;;14.87;13.87;;;19.40;66.70;;;;;;5009199;28;20649;-51
2022/11/06 09:45:42;;;;;;;13.20;12.30;;;19.50;65.70;;;;;;5006150;28;20442;-45
2022/11/06 09:48:08;;;;;;;14.20;13.30;;;19.50;65.50;;;;;;4995640;28;20422;-46
2022/11/06 09:50:43;;;;;;;13.10;12.20;;;19.80;63.60;;;;;;4989692;28;20776;-47
2022/11/06 09:53:40;;;;;;;13.67;12.80;;;20.00;60.70;;;;;;4991166;28;20188;-46
2022/11/06 09:56:11;;;;;;;14.43;13.40;;;20.20;60.50;;;;;;5009207;28;20426;-49
2022/11/06 09:58:40;;;;;;;13.87;13.07;;;19.80;61.00;;;;;;5008959;28;20509;-48
2022/11/06 10:01:16;;;;;;;13.07;12.17;;;20.40;60.50;;;;;;5009161;28;20415;-47
2022/11/06 10:03:54;;;;;;;13.37;12.47;;;20.90;59.20;;;;;;5009111;28;20887;-48
2022/11/06 10:06:21;;;;;;;13.83;12.93;;;21.10;58.20;;;;;;5011414;28;20405;-46
2022/11/06 10:08:49;;;;;;;12.70;11.90;;;20.90;57.10;;;;;;5012792;28;20406;-47
2022/11/06 10:11:14;;;;;;;12.60;11.80;;;20.80;58.90;;;;;;5012782;28;20472;-46
2022/11/06 10:14:02;;;;;;;13.20;12.20;;;20.90;56.80;;;;;;5012535;28;20953;-45
2022/11/06 10:16:35;;;;;;;13.67;12.87;;;20.70;56.20;;;;;;5012729;28;20155;-47
2022/11/06 10:19:10;;;;;;;13.37;12.50;;;21.10;56.40;;;;;;5020890;28;20896;-52
2022/11/06 10:21:53;;;;;;;13.57;12.67;;;21.90;54.80;;;;;;5030114;28;20449;-48
2022/11/06 10:25:00;;;;;;;13.13;12.33;;;21.60;53.30;;;;;;5012451;28;20471;-44
2022/11/06 10:27:41;;;;;;;13.30;12.40;;;22.30;51.30;;;;;;5011925;28;20783;-46
2022/11/06 10:30:12;;;;;;;12.97;12.07;;;22.20;51.10;;;;;;4999953;28;20860;-51
2022/11/06 10:32:46;;;;;;;11.57;10.87;;;22.30;50.70;;;;;;5002857;28;20414;-45
2022/11/06 10:35:42;;;;;;;11.70;10.90;;;22.80;49.30;;;;;;5011951;28;20467;-53
2022/11/06 10:38:24;;;;;;;12.67;11.87;;;22.20;47.90;;;;;;5011222;28;20433;-48
2022/11/06 10:40:52;;;;;;;11.10;10.50;;;22.30;49.00;;;;;;5011063;28;20920;-47
2022/11/06 10:43:34;;;;;;;9.80;9.30;;;22.20;43.90;;;;;;5011843;28;20422;-49
2022/11/06 10:46:34;;;;;;;9.47;8.97;;;22.10;43.60;;;;;;5012008;28;20453;-47
2022/11/06 10:49:05;;;;;;;10.10;9.53;;;22.20;41.70;;;;;;5011863;28;20501;-45
2022/11/06 10:52:04;;;;;;;10.53;10.03;;;22.20;41.40;;;;;;5011805;28;20453;-49
2022/11/06 10:54:45;;;;;;;10.40;9.70;;;21.70;42.00;;;;;;4992736;28;20474;-48
2022/11/06 10:57:25;;;;;;;9.47;8.90;;;21.90;42.50;;;;;;4999295;28;20414;-46
2022/11/06 10:59:51;;;;;;;9.47;8.97;;;21.60;42.50;;;;;;5011732;28;20982;-45
2022/11/06 11:02:33;;;;;;;10.17;9.57;;;21.80;41.60;;;;;;5011760;28;20410;-50
2022/11/06 11:04:58;;;;;;;10.50;9.90;;;21.90;41.80;;;;;;5011319;28;20426;-45
2022/11/06 11:07:28;;;;;;;10.43;9.83;;;22.20;39.60;;;;;;5011283;28;20877;-45
2022/11/06 11:09:53;;;;;;;9.83;9.33;;;22.50;40.50;;;;;;5011469;28;20253;-48
2022/11/06 11:12:31;;;;;;;10.17;9.47;;;22.30;39.60;;;;;;5000784;28;20423;-51
2022/11/06 11:15:25;;;;;;;9.80;9.30;;;22.20;39.70;;;;;;4991551;28;20614;-50
2022/11/06 11:18:07;;;;;;;10.67;9.93;;;22.10;40.10;;;;;;4988541;28;20449;-47
2022/11/06 11:20:35;;;;;;;10.73;10.20;;;21.70;40.20;;;;;;4992324;28;20482;-47
2022/11/06 11:23:17;;;;;;;11.33;10.70;;;22.00;40.40;;;;;;4993849;28;20450;-45
2022/11/06 11:25:49;;;;;;;12.20;11.40;;;22.70;40.80;;;;;;5011550;28;20425;-47
2022/11/06 11:28:36;;;;;;;11.40;10.80;;;22.50;40.70;;;;;;5003652;28;20474;-52
2022/11/06 11:31:10;;;;;;;11.50;10.80;;;22.60;39.80;;;;;;5005828;28;21300;-45
2022/11/06 11:33:38;;;;;;;10.77;10.17;;;23.30;39.50;;;;;;4991986;28;20438;-45
2022/11/06 11:36:06;;;;;;;11.90;11.20;;;23.20;40.80;;;;;;5003192;28;20435;-53
2022/11/06 11:38:37;;;;;;;10.80;10.20;;;23.10;39.60;;;;;;5010467;28;20936;-46
2022/11/06 11:41:10;;;;;;;11.17;10.57;;;23.20;38.00;;;;;;5010977;28;20418;-48
2022/11/06 11:43:35;;;;;;;10.90;10.30;;;23.50;37.00;;;;;;4992633;28;20427;-45
2022/11/06 11:46:16;;;;;;;10.80;10.10;;;23.60;37.10;;;;;;5001701;28;20433;-48
2022/11/06 11:48:46;;;;;;;10.33;9.73;;;23.30;37.20;;;;;;5010538;28;20179;-51
2022/11/06 11:51:29;;;;;;;10.50;9.80;;;23.10;38.10;;;;;;5008741;28;20952;-47
2022/11/06 11:54:18;;;;;;;10.90;10.20;;;23.30;37.50;;;;;;4991431;28;20470;-48
2022/11/06 11:56:56;;;;;;;10.10;9.60;;;23.50;37.50;;;;;;4994136;28;20446;-49
2022/11/06 11:59:42;;;;;;;10.87;10.20;;;23.70;36.70;;;;;;5010497;28;20434;-49
2022/11/06 12:02:21;;;;;;;10.30;9.80;;;23.80;35.90;;;;;;4997581;28;20414;-47
2022/11/06 12:04:59;;;;;;;10.10;9.50;;;24.00;36.00;;;;;;5010456;28;20418;-51
2022/11/06 12:07:26;;;;;;;11.00;10.30;;;23.80;34.80;;;;;;5004401;28;20767;-45
2022/11/06 12:09:52;;;;;;;10.40;9.80;;;23.70;36.20;;;;;;4990783;28;20431;-47
2022/11/06 12:12:24;;;;;;;9.47;8.97;;;23.90;36.40;;;;;;5008367;28;20779;-50
2022/11/06 12:15:18;;;;;;;10.07;9.53;;;23.60;36.00;;;;;;4998336;28;20243;-49
2022/11/06 12:17:56;;;;;;;9.43;8.87;;;23.80;36.40;;;;;;4990196;28;20758;-50
2022/11/06 12:20:53;;;;;;;10.20;9.60;;;23.40;36.60;;;;;;5013201;28;20461;-48
2022/11/06 12:23:35;;;;;;;9.70;9.20;;;23.40;36.30;;;;;;4995235;28;20972;-50
2022/11/06 12:26:05;;;;;;;9.73;9.20;;;23.80;35.60;;;;;;4991512;28;20433;-45
2022/11/06 12:28:34;;;;;;;9.97;9.17;;;23.70;33.80;;;;;;4991905;28;20412;-49
2022/11/06 12:31:08;;;;;;;9.63;9.03;;;24.00;33.50;;;;;;5009692;28;20418;-45
2022/11/06 12:33:37;;;;;;;10.13;9.60;;;23.50;32.90;;;;;;5010947;28;20445;-49
2022/11/06 12:36:07;;;;;;;10.83;10.13;;;22.50;32.30;;;;;;5010196;28;20484;-47
2022/11/06 12:38:47;;;;;;;10.63;9.93;;;21.80;34.00;;;;;;5005674;28;20410;-47
2022/11/06 12:41:28;;;;;;;9.60;9.00;;;21.50;34.80;;;;;;5010277;28;20420;-45
2022/11/06 12:43:55;;;;;;;10.17;9.57;;;22.00;36.50;;;;;;5010035;28;20438;-44
2022/11/06 12:46:39;;;;;;;10.03;9.40;;;21.80;34.80;;;;;;5008355;28;20437;-49
2022/11/06 12:49:20;;;;;;;9.50;9.00;;;22.00;34.50;;;;;;4989044;28;20510;-45
2022/11/06 12:52:37;;;;;;;10.20;9.67;;;22.30;35.10;;;;;;4991111;28;20436;-44
2022/11/06 12:55:19;;;;;;;10.37;9.67;;;22.40;34.60;;;;;;4991103;28;21159;-49
2022/11/06 12:58:09;;;;;;;10.90;10.30;;;22.40;34.40;;;;;;4990201;28;20422;-48
2022/11/06 13:01:10;;;;;;;9.13;8.53;;;20.50;35.30;;;;;;4990279;28;20526;-46
2022/11/06 13:03:58;;;;;;;9.83;9.23;;;20.30;35.90;;;;;;4998923;28;20442;-44
2022/11/06 13:07:01;;;;;;;11.07;10.37;;;20.80;37.60;;;;;;5009428;28;20791;-44
2022/11/06 13:09:36;;;;;;;9.80;9.20;;;20.90;37.50;;;;;;4994295;28;20461;-49
2022/11/06 13:12:34;;;;;;;9.60;9.10;;;21.00;35.00;;;;;;4989541;28;20418;-49
2022/11/06 13:15:18;;;;;;;10.80;10.20;;;20.80;35.30;;;;;;4995863;28;20484;-45